Terminal Aerodrome Forecast
Issued by NWS

Home | Current Version | Previous Version | Text Only | Print | Product List | Glossary On
Versions: 1 2 3 4 5 6 7 8 9 10 11 12 13 14 15 16 17 18 19 20 21 22 23 24 25 26 27 28 29 30
867
FTUS46 KMTR 142118 AAB
TAFSFO
TAF AMD
KSFO 142118Z 1421/1524 VRB04KT P6SM FEW200
     FM142200 30014G22KT P6SM SKC
     FM150500 29011G18KT P6SM SKC
     FM150800 32009KT P6SM SKC
     FM151500 04004KT P6SM SKC
     FM152300 31006KT P6SM SKC=

USA.gov is the U.S. government's official web portal to all federal, state and local government web resources and services.